sensor_id;sensor_type;location;lat;lon;timestamp;P1;durP1;ratioP1;P2;durP2;ratioP2
43994;SDS011;51687;52.160;5.298;2023-03-05T00:02:17;11.32;;;3.17;;
43994;SDS011;51687;52.160;5.298;2023-03-05T00:04:44;6.43;;;2.60;;
43994;SDS011;51687;52.160;5.298;2023-03-05T00:07:11;13.98;;;3.22;;
43994;SDS011;51687;52.160;5.298;2023-03-05T00:09:39;8.15;;;3.13;;
43994;SDS011;51687;52.160;5.298;2023-03-05T00:12:06;7.95;;;2.72;;
43994;SDS011;51687;52.160;5.298;2023-03-05T00:14:33;12.70;;;3.30;;
43994;SDS011;51687;52.160;5.298;2023-03-05T00:16:59;5.28;;;2.70;;
43994;SDS011;51687;52.160;5.298;2023-03-05T00:19:26;10.93;;;3.20;;
43994;SDS011;51687;52.160;5.298;2023-03-05T00:21:53;8.50;;;2.88;;
43994;SDS011;51687;52.160;5.298;2023-03-05T00:24:20;10.02;;;3.35;;
43994;SDS011;51687;52.160;5.298;2023-03-05T00:26:47;9.80;;;2.90;;
43994;SDS011;51687;52.160;5.298;2023-03-05T00:29:15;10.80;;;3.67;;
43994;SDS011;51687;52.160;5.298;2023-03-05T00:31:44;9.73;;;3.30;;
43994;SDS011;51687;52.160;5.298;2023-03-05T00:34:12;11.48;;;3.60;;
43994;SDS011;51687;52.160;5.298;2023-03-05T00:36:45;7.47;;;3.13;;
43994;SDS011;51687;52.160;5.298;2023-03-05T00:39:17;9.00;;;3.35;;
43994;SDS011;51687;52.160;5.298;2023-03-05T00:41:45;10.88;;;3.67;;
43994;SDS011;51687;52.160;5.298;2023-03-05T00:44:12;11.02;;;4.28;;
43994;SDS011;51687;52.160;5.298;2023-03-05T00:46:39;9.05;;;4.07;;
43994;SDS011;51687;52.160;5.298;2023-03-05T00:49:06;8.75;;;3.47;;
43994;SDS011;51687;52.160;5.298;2023-03-05T00:51:33;9.68;;;3.13;;
43994;SDS011;51687;52.160;5.298;2023-03-05T00:53:59;6.40;;;3.05;;
43994;SDS011;51687;52.160;5.298;2023-03-05T00:56:26;8.70;;;2.88;;
43994;SDS011;51687;52.160;5.298;2023-03-05T00:58:54;10.30;;;2.97;;
43994;SDS011;51687;52.160;5.298;2023-03-05T01:01:22;14.88;;;3.40;;
43994;SDS011;51687;52.160;5.298;2023-03-05T01:03:49;11.15;;;3.75;;
43994;SDS011;51687;52.160;5.298;2023-03-05T01:06:16;6.72;;;2.60;;
43994;SDS011;51687;52.160;5.298;2023-03-05T01:08:44;11.93;;;3.30;;
43994;SDS011;51687;52.160;5.298;2023-03-05T01:11:11;7.47;;;3.08;;
43994;SDS011;51687;52.160;5.298;2023-03-05T01:13:37;6.43;;;3.00;;
43994;SDS011;51687;52.160;5.298;2023-03-05T01:16:04;6.68;;;2.55;;
43994;SDS011;51687;52.160;5.298;2023-03-05T01:18:31;10.15;;;3.45;;
43994;SDS011;51687;52.160;5.298;2023-03-05T01:20:58;9.70;;;2.90;;
43994;SDS011;51687;52.160;5.298;2023-03-05T01:23:25;7.95;;;3.05;;
43994;SDS011;51687;52.160;5.298;2023-03-05T01:25:54;8.35;;;3.10;;
43994;SDS011;51687;52.160;5.298;2023-03-05T01:28:22;6.05;;;2.65;;
43994;SDS011;51687;52.160;5.298;2023-03-05T01:30:49;9.95;;;3.63;;
43994;SDS011;51687;52.160;5.298;2023-03-05T01:33:15;7.40;;;2.80;;
43994;SDS011;51687;52.160;5.298;2023-03-05T01:35:44;7.63;;;2.63;;
43994;SDS011;51687;52.160;5.298;2023-03-05T01:38:14;6.85;;;2.67;;
43994;SDS011;51687;52.160;5.298;2023-03-05T01:40:42;9.18;;;3.17;;
43994;SDS011;51687;52.160;5.298;2023-03-05T01:45:37;11.25;;;3.83;;
43994;SDS011;51687;52.160;5.298;2023-03-05T01:48:05;6.63;;;2.50;;
43994;SDS011;51687;52.160;5.298;2023-03-05T01:50:31;6.18;;;2.50;;
43994;SDS011;51687;52.160;5.298;2023-03-05T01:53:00;8.75;;;2.67;;
43994;SDS011;51687;52.160;5.298;2023-03-05T01:55:31;6.65;;;2.58;;
43994;SDS011;51687;52.160;5.298;2023-03-05T01:58:00;9.38;;;3.90;;
43994;SDS011;51687;52.160;5.298;2023-03-05T02:00:32;7.35;;;2.78;;
43994;SDS011;51687;52.160;5.298;2023-03-05T02:03:03;8.55;;;2.20;;
43994;SDS011;51687;52.160;5.298;2023-03-05T02:05:34;6.38;;;2.70;;
43994;SDS011;51687;52.160;5.298;2023-03-05T02:08:04;7.53;;;3.25;;
43994;SDS011;51687;52.160;5.298;2023-03-05T02:10:38;8.23;;;2.63;;
43994;SDS011;51687;52.160;5.298;2023-03-05T02:13:08;7.53;;;2.58;;
43994;SDS011;51687;52.160;5.298;2023-03-05T02:15:39;6.97;;;2.83;;
43994;SDS011;51687;52.160;5.298;2023-03-05T02:18:08;6.80;;;2.85;;
43994;SDS011;51687;52.160;5.298;2023-03-05T02:20:49;7.50;;;2.97;;
43994;SDS011;51687;52.160;5.298;2023-03-05T02:23:19;8.30;;;3.10;;
43994;SDS011;51687;52.160;5.298;2023-03-05T02:25:47;11.48;;;3.20;;
43994;SDS011;51687;52.160;5.298;2023-03-05T02:30:50;8.73;;;3.38;;
43994;SDS011;51687;52.160;5.298;2023-03-05T02:33:17;10.05;;;3.22;;
43994;SDS011;51687;52.160;5.298;2023-03-05T02:35:45;14.88;;;3.67;;
43994;SDS011;51687;52.160;5.298;2023-03-05T02:38:13;8.43;;;3.50;;
43994;SDS011;51687;52.160;5.298;2023-03-05T02:40:41;12.05;;;3.33;;
43994;SDS011;51687;52.160;5.298;2023-03-05T02:43:09;7.75;;;3.28;;
43994;SDS011;51687;52.160;5.298;2023-03-05T02:45:36;8.73;;;2.60;;
43994;SDS011;51687;52.160;5.298;2023-03-05T02:48:03;8.75;;;2.65;;
43994;SDS011;51687;52.160;5.298;2023-03-05T02:50:30;7.78;;;2.72;;
43994;SDS011;51687;52.160;5.298;2023-03-05T02:52:59;12.18;;;3.90;;
43994;SDS011;51687;52.160;5.298;2023-03-05T02:55:26;7.43;;;3.15;;
43994;SDS011;51687;52.160;5.298;2023-03-05T02:57:53;7.82;;;2.83;;
43994;SDS011;51687;52.160;5.298;2023-03-05T03:00:19;6.68;;;2.75;;
43994;SDS011;51687;52.160;5.298;2023-03-05T03:02:46;11.40;;;2.88;;
43994;SDS011;51687;52.160;5.298;2023-03-05T03:05:13;14.23;;;3.47;;
43994;SDS011;51687;52.160;5.298;2023-03-05T03:07:40;6.93;;;2.85;;
43994;SDS011;51687;52.160;5.298;2023-03-05T03:10:07;6.68;;;2.33;;
43994;SDS011;51687;52.160;5.298;2023-03-05T03:12:38;9.23;;;2.55;;
43994;SDS011;51687;52.160;5.298;2023-03-05T03:15:06;8.93;;;3.10;;
43994;SDS011;51687;52.160;5.298;2023-03-05T03:17:35;7.25;;;2.55;;
43994;SDS011;51687;52.160;5.298;2023-03-05T03:20:05;6.60;;;2.53;;
43994;SDS011;51687;52.160;5.298;2023-03-05T03:22:34;6.45;;;2.17;;
43994;SDS011;51687;52.160;5.298;2023-03-05T03:25:02;6.40;;;2.60;;
43994;SDS011;51687;52.160;5.298;2023-03-05T03:27:29;8.35;;;2.75;;
43994;SDS011;51687;52.160;5.298;2023-03-05T03:29:55;8.75;;;2.40;;
43994;SDS011;51687;52.160;5.298;2023-03-05T03:32:28;7.22;;;2.25;;
43994;SDS011;51687;52.160;5.298;2023-03-05T03:37:23;8.30;;;3.28;;
43994;SDS011;51687;52.160;5.298;2023-03-05T03:39:50;6.07;;;2.25;;
43994;SDS011;51687;52.160;5.298;2023-03-05T03:42:17;5.78;;;2.10;;
43994;SDS011;51687;52.160;5.298;2023-03-05T03:44:46;7.10;;;2.33;;
43994;SDS011;51687;52.160;5.298;2023-03-05T03:47:13;6.60;;;2.05;;
43994;SDS011;51687;52.160;5.298;2023-03-05T03:49:40;7.32;;;2.25;;
43994;SDS011;51687;52.160;5.298;2023-03-05T03:52:07;5.97;;;1.95;;
43994;SDS011;51687;52.160;5.298;2023-03-05T03:54:34;7.25;;;2.00;;
43994;SDS011;51687;52.160;5.298;2023-03-05T03:57:01;4.97;;;2.50;;
43994;SDS011;51687;52.160;5.298;2023-03-05T03:59:28;6.60;;;2.20;;
43994;SDS011;51687;52.160;5.298;2023-03-05T04:01:55;7.45;;;2.25;;
43994;SDS011;51687;52.160;5.298;2023-03-05T04:04:22;6.25;;;1.67;;
43994;SDS011;51687;52.160;5.298;2023-03-05T04:06:53;6.05;;;1.88;;
43994;SDS011;51687;52.160;5.298;2023-03-05T04:09:20;6.47;;;2.00;;
43994;SDS011;51687;52.160;5.298;2023-03-05T04:11:47;10.30;;;1.90;;
43994;SDS011;51687;52.160;5.298;2023-03-05T04:14:14;3.85;;;1.55;;
43994;SDS011;51687;52.160;5.298;2023-03-05T04:16:41;4.63;;;1.63;;
43994;SDS011;51687;52.160;5.298;2023-03-05T04:19:08;6.25;;;1.75;;
43994;SDS011;51687;52.160;5.298;2023-03-05T04:21:35;7.35;;;2.30;;
43994;SDS011;51687;52.160;5.298;2023-03-05T04:24:02;8.90;;;1.80;;
43994;SDS011;51687;52.160;5.298;2023-03-05T04:26:29;6.40;;;2.22;;
43994;SDS011;51687;52.160;5.298;2023-03-05T04:28:56;3.22;;;1.40;;
43994;SDS011;51687;52.160;5.298;2023-03-05T04:31:26;4.80;;;1.75;;
43994;SDS011;51687;52.160;5.298;2023-03-05T04:33:53;5.82;;;2.17;;
43994;SDS011;51687;52.160;5.298;2023-03-05T04:36:20;6.05;;;1.83;;
43994;SDS011;51687;52.160;5.298;2023-03-05T04:38:47;3.35;;;1.45;;
43994;SDS011;51687;52.160;5.298;2023-03-05T04:41:14;4.97;;;1.10;;
43994;SDS011;51687;52.160;5.298;2023-03-05T04:43:41;5.85;;;1.60;;
43994;SDS011;51687;52.160;5.298;2023-03-05T04:46:07;7.18;;;2.08;;
43994;SDS011;51687;52.160;5.298;2023-03-05T04:48:34;6.43;;;1.55;;
43994;SDS011;51687;52.160;5.298;2023-03-05T04:51:01;6.75;;;1.98;;
43994;SDS011;51687;52.160;5.298;2023-03-05T04:53:28;4.63;;;1.45;;
43994;SDS011;51687;52.160;5.298;2023-03-05T04:55:54;4.50;;;1.27;;
43994;SDS011;51687;52.160;5.298;2023-03-05T04:58:22;7.28;;;1.58;;
43994;SDS011;51687;52.160;5.298;2023-03-05T05:00:48;8.38;;;1.88;;
43994;SDS011;51687;52.160;5.298;2023-03-05T05:03:15;4.43;;;1.45;;
43994;SDS011;51687;52.160;5.298;2023-03-05T05:05:43;5.32;;;1.42;;
43994;SDS011;51687;52.160;5.298;2023-03-05T05:08:10;5.70;;;1.35;;
43994;SDS011;51687;52.160;5.298;2023-03-05T05:10:37;5.85;;;1.80;;
43994;SDS011;51687;52.160;5.298;2023-03-05T05:13:05;7.53;;;1.80;;
43994;SDS011;51687;52.160;5.298;2023-03-05T05:15:33;4.95;;;1.80;;
43994;SDS011;51687;52.160;5.298;2023-03-05T05:18:00;7.03;;;1.70;;
43994;SDS011;51687;52.160;5.298;2023-03-05T05:20:26;5.60;;;1.90;;
43994;SDS011;51687;52.160;5.298;2023-03-05T05:22:53;6.32;;;1.88;;
43994;SDS011;51687;52.160;5.298;2023-03-05T05:25:20;6.57;;;1.80;;
43994;SDS011;51687;52.160;5.298;2023-03-05T05:27:47;5.13;;;1.88;;
43994;SDS011;51687;52.160;5.298;2023-03-05T05:30:13;8.57;;;1.60;;
43994;SDS011;51687;52.160;5.298;2023-03-05T05:32:40;8.52;;;1.98;;
43994;SDS011;51687;52.160;5.298;2023-03-05T05:35:08;5.32;;;1.40;;
43994;SDS011;51687;52.160;5.298;2023-03-05T05:37:35;6.10;;;1.83;;
43994;SDS011;51687;52.160;5.298;2023-03-05T05:40:02;4.60;;;1.92;;
43994;SDS011;51687;52.160;5.298;2023-03-05T05:42:30;4.80;;;1.55;;
43994;SDS011;51687;52.160;5.298;2023-03-05T05:44:57;6.80;;;1.90;;
43994;SDS011;51687;52.160;5.298;2023-03-05T05:47:24;4.97;;;1.70;;
43994;SDS011;51687;52.160;5.298;2023-03-05T05:49:51;4.25;;;1.67;;
43994;SDS011;51687;52.160;5.298;2023-03-05T05:52:18;5.60;;;1.80;;
43994;SDS011;51687;52.160;5.298;2023-03-05T05:54:45;7.25;;;1.73;;
43994;SDS011;51687;52.160;5.298;2023-03-05T05:57:12;3.65;;;1.58;;
43994;SDS011;51687;52.160;5.298;2023-03-05T05:59:39;3.63;;;1.50;;
43994;SDS011;51687;52.160;5.298;2023-03-05T06:02:06;4.90;;;2.50;;
43994;SDS011;51687;52.160;5.298;2023-03-05T06:04:34;4.72;;;1.42;;
43994;SDS011;51687;52.160;5.298;2023-03-05T06:07:01;3.63;;;1.60;;
43994;SDS011;51687;52.160;5.298;2023-03-05T06:09:28;5.90;;;2.00;;
43994;SDS011;51687;52.160;5.298;2023-03-05T06:11:55;5.93;;;1.70;;
43994;SDS011;51687;52.160;5.298;2023-03-05T06:14:22;5.65;;;2.03;;
43994;SDS011;51687;52.160;5.298;2023-03-05T06:16:49;3.47;;;1.42;;
43994;SDS011;51687;52.160;5.298;2023-03-05T06:19:15;6.72;;;1.80;;
43994;SDS011;51687;52.160;5.298;2023-03-05T06:21:42;4.80;;;1.65;;
43994;SDS011;51687;52.160;5.298;2023-03-05T06:24:09;6.78;;;1.88;;
43994;SDS011;51687;52.160;5.298;2023-03-05T06:26:36;3.67;;;1.80;;
43994;SDS011;51687;52.160;5.298;2023-03-05T06:29:03;3.75;;;1.73;;
43994;SDS011;51687;52.160;5.298;2023-03-05T06:31:30;5.68;;;1.63;;
43994;SDS011;51687;52.160;5.298;2023-03-05T06:33:58;7.00;;;2.40;;
43994;SDS011;51687;52.160;5.298;2023-03-05T06:36:29;4.78;;;1.80;;
43994;SDS011;51687;52.160;5.298;2023-03-05T06:38:56;5.85;;;1.80;;
43994;SDS011;51687;52.160;5.298;2023-03-05T06:41:25;4.95;;;1.65;;
43994;SDS011;51687;52.160;5.298;2023-03-05T06:43:53;4.47;;;1.52;;
43994;SDS011;51687;52.160;5.298;2023-03-05T06:46:22;5.50;;;2.15;;
43994;SDS011;51687;52.160;5.298;2023-03-05T06:48:54;4.40;;;1.67;;
43994;SDS011;51687;52.160;5.298;2023-03-05T06:51:23;6.82;;;1.92;;
43994;SDS011;51687;52.160;5.298;2023-03-05T06:53:52;3.35;;;1.52;;
43994;SDS011;51687;52.160;5.298;2023-03-05T06:56:19;6.07;;;1.52;;
43994;SDS011;51687;52.160;5.298;2023-03-05T06:58:47;5.72;;;2.00;;
43994;SDS011;51687;52.160;5.298;2023-03-05T07:03:43;5.30;;;2.03;;
43994;SDS011;51687;52.160;5.298;2023-03-05T07:06:11;5.32;;;1.60;;
43994;SDS011;51687;52.160;5.298;2023-03-05T07:08:39;4.40;;;1.48;;
43994;SDS011;51687;52.160;5.298;2023-03-05T07:11:11;5.13;;;1.48;;
43994;SDS011;51687;52.160;5.298;2023-03-05T07:13:38;3.83;;;1.83;;
43994;SDS011;51687;52.160;5.298;2023-03-05T07:16:06;4.05;;;1.38;;
43994;SDS011;51687;52.160;5.298;2023-03-05T07:18:35;3.22;;;1.45;;
43994;SDS011;51687;52.160;5.298;2023-03-05T07:21:06;4.90;;;1.55;;
43994;SDS011;51687;52.160;5.298;2023-03-05T07:23:34;4.25;;;1.95;;
43994;SDS011;51687;52.160;5.298;2023-03-05T07:26:02;5.20;;;1.30;;
43994;SDS011;51687;52.160;5.298;2023-03-05T07:28:29;3.50;;;1.73;;
43994;SDS011;51687;52.160;5.298;2023-03-05T07:31:01;4.43;;;1.45;;
43994;SDS011;51687;52.160;5.298;2023-03-05T07:33:28;4.60;;;1.60;;
43994;SDS011;51687;52.160;5.298;2023-03-05T07:35:56;3.15;;;1.35;;
43994;SDS011;51687;52.160;5.298;2023-03-05T07:38:23;5.57;;;1.40;;
43994;SDS011;51687;52.160;5.298;2023-03-05T07:40:50;4.32;;;1.42;;
43994;SDS011;51687;52.160;5.298;2023-03-05T07:43:17;1.80;;;1.10;;
43994;SDS011;51687;52.160;5.298;2023-03-05T07:45:45;5.07;;;1.42;;
43994;SDS011;51687;52.160;5.298;2023-03-05T07:48:18;3.55;;;1.60;;
43994;SDS011;51687;52.160;5.298;2023-03-05T07:50:46;4.80;;;1.25;;
43994;SDS011;51687;52.160;5.298;2023-03-05T07:53:14;4.53;;;1.45;;
43994;SDS011;51687;52.160;5.298;2023-03-05T07:55:44;4.45;;;1.38;;
43994;SDS011;51687;52.160;5.298;2023-03-05T07:58:12;5.82;;;1.50;;
43994;SDS011;51687;52.160;5.298;2023-03-05T08:00:40;5.63;;;1.52;;
43994;SDS011;51687;52.160;5.298;2023-03-05T08:03:07;3.55;;;1.30;;
43994;SDS011;51687;52.160;5.298;2023-03-05T08:05:37;4.07;;;1.30;;
43994;SDS011;51687;52.160;5.298;2023-03-05T08:08:05;7.47;;;1.80;;
43994;SDS011;51687;52.160;5.298;2023-03-05T08:10:33;4.10;;;1.33;;
43994;SDS011;51687;52.160;5.298;2023-03-05T08:13:00;4.28;;;1.40;;
43994;SDS011;51687;52.160;5.298;2023-03-05T08:15:27;5.50;;;1.40;;
43994;SDS011;51687;52.160;5.298;2023-03-05T08:17:57;6.55;;;1.80;;
43994;SDS011;51687;52.160;5.298;2023-03-05T08:20:24;4.07;;;1.90;;
43994;SDS011;51687;52.160;5.298;2023-03-05T08:22:51;7.15;;;1.60;;
43994;SDS011;51687;52.160;5.298;2023-03-05T08:25:18;4.80;;;1.35;;
43994;SDS011;51687;52.160;5.298;2023-03-05T08:27:46;5.75;;;1.70;;
43994;SDS011;51687;52.160;5.298;2023-03-05T08:30:15;5.90;;;2.13;;
43994;SDS011;51687;52.160;5.298;2023-03-05T08:32:43;3.45;;;1.80;;
43994;SDS011;51687;52.160;5.298;2023-03-05T08:35:10;4.68;;;1.88;;
43994;SDS011;51687;52.160;5.298;2023-03-05T08:37:38;3.63;;;1.75;;
43994;SDS011;51687;52.160;5.298;2023-03-05T08:40:05;4.10;;;1.75;;
43994;SDS011;51687;52.160;5.298;2023-03-05T08:42:32;6.25;;;2.20;;
43994;SDS011;51687;52.160;5.298;2023-03-05T08:44:59;4.43;;;1.70;;
43994;SDS011;51687;52.160;5.298;2023-03-05T08:47:27;3.88;;;1.70;;
43994;SDS011;51687;52.160;5.298;2023-03-05T08:49:54;5.68;;;1.60;;
43994;SDS011;51687;52.160;5.298;2023-03-05T08:52:22;4.03;;;1.60;;
43994;SDS011;51687;52.160;5.298;2023-03-05T08:54:50;4.30;;;2.90;;
43994;SDS011;51687;52.160;5.298;2023-03-05T08:57:17;6.40;;;2.67;;
43994;SDS011;51687;52.160;5.298;2023-03-05T08:59:46;5.15;;;2.00;;
43994;SDS011;51687;52.160;5.298;2023-03-05T09:04:39;2.72;;;1.80;;
43994;SDS011;51687;52.160;5.298;2023-03-05T09:07:06;2.80;;;1.90;;
43994;SDS011;51687;52.160;5.298;2023-03-05T09:09:33;5.22;;;1.80;;
43994;SDS011;51687;52.160;5.298;2023-03-05T09:12:00;3.00;;;1.52;;
43994;SDS011;51687;52.160;5.298;2023-03-05T09:14:28;2.17;;;1.60;;
43994;SDS011;51687;52.160;5.298;2023-03-05T09:16:55;2.50;;;1.35;;
43994;SDS011;51687;52.160;5.298;2023-03-05T09:19:22;4.32;;;1.80;;
43994;SDS011;51687;52.160;5.298;2023-03-05T09:21:50;3.55;;;1.48;;
43994;SDS011;51687;52.160;5.298;2023-03-05T09:24:17;4.80;;;1.85;;
43994;SDS011;51687;52.160;5.298;2023-03-05T09:26:44;4.97;;;1.73;;
43994;SDS011;51687;52.160;5.298;2023-03-05T09:29:11;4.90;;;1.58;;
43994;SDS011;51687;52.160;5.298;2023-03-05T09:31:38;3.08;;;1.45;;
43994;SDS011;51687;52.160;5.298;2023-03-05T09:34:05;4.30;;;1.20;;
43994;SDS011;51687;52.160;5.298;2023-03-05T09:36:33;1.83;;;1.10;;
43994;SDS011;51687;52.160;5.298;2023-03-05T09:39:00;3.10;;;1.65;;
43994;SDS011;51687;52.160;5.298;2023-03-05T09:49:36;1.80;;;1.48;;
43994;SDS011;51687;52.160;5.298;2023-03-05T09:52:43;2.40;;;1.33;;
43994;SDS011;51687;52.160;5.298;2023-03-05T09:55:26;4.13;;;1.85;;
43994;SDS011;51687;52.160;5.298;2023-03-05T09:58:06;3.70;;;1.30;;
43994;SDS011;51687;52.160;5.298;2023-03-05T10:00:47;5.13;;;1.65;;
43994;SDS011;51687;52.160;5.298;2023-03-05T10:03:19;3.97;;;1.15;;
43994;SDS011;51687;52.160;5.298;2023-03-05T10:05:55;3.33;;;1.40;;
43994;SDS011;51687;52.160;5.298;2023-03-05T10:11:05;3.20;;;1.40;;
43994;SDS011;51687;52.160;5.298;2023-03-05T10:13:44;3.88;;;1.20;;
43994;SDS011;51687;52.160;5.298;2023-03-05T10:16:30;4.93;;;1.75;;
43994;SDS011;51687;52.160;5.298;2023-03-05T10:27:32;2.88;;;1.02;;
43994;SDS011;51687;52.160;5.298;2023-03-05T10:32:43;3.58;;;1.15;;
43994;SDS011;51687;52.160;5.298;2023-03-05T10:41:15;3.75;;;1.10;;
43994;SDS011;51687;52.160;5.298;2023-03-05T10:46:34;5.05;;;1.27;;
43994;SDS011;51687;52.160;5.298;2023-03-05T10:52:20;2.63;;;1.00;;
43994;SDS011;51687;52.160;5.298;2023-03-05T10:54:44;4.03;;;0.95;;
43994;SDS011;51687;52.160;5.298;2023-03-05T10:59:46;2.72;;;0.95;;
43994;SDS011;51687;52.160;5.298;2023-03-05T11:02:13;3.45;;;0.80;;
43994;SDS011;51687;52.160;5.298;2023-03-05T11:04:41;3.65;;;1.38;;
43994;SDS011;51687;52.160;5.298;2023-03-05T11:09:42;1.33;;;0.93;;
43994;SDS011;51687;52.160;5.298;2023-03-05T11:12:28;2.58;;;1.00;;
43994;SDS011;51687;52.160;5.298;2023-03-05T11:17:44;2.80;;;0.88;;
43994;SDS011;51687;52.160;5.298;2023-03-05T11:20:22;1.67;;;0.75;;
43994;SDS011;51687;52.160;5.298;2023-03-05T11:25:28;3.35;;;1.48;;
43994;SDS011;51687;52.160;5.298;2023-03-05T11:27:59;1.48;;;1.10;;
43994;SDS011;51687;52.160;5.298;2023-03-05T11:36:11;2.75;;;0.70;;
43994;SDS011;51687;52.160;5.298;2023-03-05T11:39:01;3.08;;;0.85;;
43994;SDS011;51687;52.160;5.298;2023-03-05T11:41:37;3.55;;;1.17;;
43994;SDS011;51687;52.160;5.298;2023-03-05T11:44:19;1.80;;;0.90;;
43994;SDS011;51687;52.160;5.298;2023-03-05T11:46:57;2.05;;;0.70;;
43994;SDS011;51687;52.160;5.298;2023-03-05T11:49:44;1.27;;;0.90;;
43994;SDS011;51687;52.160;5.298;2023-03-05T11:52:27;2.95;;;0.90;;
43994;SDS011;51687;52.160;5.298;2023-03-05T11:55:04;2.97;;;0.88;;
43994;SDS011;51687;52.160;5.298;2023-03-05T11:57:44;4.78;;;0.95;;
43994;SDS011;51687;52.160;5.298;2023-03-05T12:00:29;2.47;;;0.70;;
43994;SDS011;51687;52.160;5.298;2023-03-05T12:02:58;1.63;;;0.80;;
43994;SDS011;51687;52.160;5.298;2023-03-05T12:05:27;3.47;;;1.02;;
43994;SDS011;51687;52.160;5.298;2023-03-05T12:07:56;3.60;;;1.00;;
43994;SDS011;51687;52.160;5.298;2023-03-05T12:10:26;3.35;;;1.10;;
43994;SDS011;51687;52.160;5.298;2023-03-05T12:13:01;2.65;;;0.80;;
43994;SDS011;51687;52.160;5.298;2023-03-05T12:15:36;0.97;;;0.40;;
43994;SDS011;51687;52.160;5.298;2023-03-05T12:21:13;3.65;;;0.80;;
43994;SDS011;51687;52.160;5.298;2023-03-05T12:24:02;1.13;;;0.52;;
43994;SDS011;51687;52.160;5.298;2023-03-05T12:29:36;2.03;;;0.80;;
43994;SDS011;51687;52.160;5.298;2023-03-05T12:32:50;5.05;;;1.00;;
43994;SDS011;51687;52.160;5.298;2023-03-05T12:47:45;6.10;;;1.25;;
43994;SDS011;51687;52.160;5.298;2023-03-05T12:52:56;2.05;;;0.80;;
43994;SDS011;51687;52.160;5.298;2023-03-05T12:55:45;2.53;;;0.93;;
43994;SDS011;51687;52.160;5.298;2023-03-05T12:58:19;1.80;;;0.93;;
43994;SDS011;51687;52.160;5.298;2023-03-05T13:03:43;2.25;;;0.90;;
43994;SDS011;51687;52.160;5.298;2023-03-05T13:06:32;2.20;;;0.85;;
43994;SDS011;51687;52.160;5.298;2023-03-05T13:09:02;1.17;;;0.70;;
43994;SDS011;51687;52.160;5.298;2023-03-05T13:11:33;2.45;;;1.40;;
43994;SDS011;51687;52.160;5.298;2023-03-05T13:14:04;3.10;;;0.90;;
43994;SDS011;51687;52.160;5.298;2023-03-05T13:19:54;5.10;;;1.20;;
43994;SDS011;51687;52.160;5.298;2023-03-05T13:22:22;1.73;;;0.80;;
43994;SDS011;51687;52.160;5.298;2023-03-05T13:25:11;1.63;;;0.93;;
43994;SDS011;51687;52.160;5.298;2023-03-05T13:27:42;3.58;;;1.00;;
43994;SDS011;51687;52.160;5.298;2023-03-05T13:30:25;2.03;;;1.00;;
43994;SDS011;51687;52.160;5.298;2023-03-05T13:32:54;2.17;;;1.02;;
43994;SDS011;51687;52.160;5.298;2023-03-05T13:35:26;1.75;;;0.70;;
43994;SDS011;51687;52.160;5.298;2023-03-05T13:37:52;2.08;;;0.85;;
43994;SDS011;51687;52.160;5.298;2023-03-05T13:40:21;3.58;;;1.35;;
43994;SDS011;51687;52.160;5.298;2023-03-05T13:43:07;3.30;;;0.82;;
43994;SDS011;51687;52.160;5.298;2023-03-05T13:45:37;8.38;;;1.00;;
43994;SDS011;51687;52.160;5.298;2023-03-05T13:48:05;1.17;;;1.00;;
43994;SDS011;51687;52.160;5.298;2023-03-05T13:50:34;2.28;;;0.80;;
43994;SDS011;51687;52.160;5.298;2023-03-05T13:53:13;2.50;;;0.90;;
43994;SDS011;51687;52.160;5.298;2023-03-05T13:55:48;2.63;;;1.00;;
43994;SDS011;51687;52.160;5.298;2023-03-05T14:01:17;2.53;;;0.90;;
43994;SDS011;51687;52.160;5.298;2023-03-05T14:03:50;2.70;;;0.80;;
43994;SDS011;51687;52.160;5.298;2023-03-05T14:06:19;3.70;;;0.75;;
43994;SDS011;51687;52.160;5.298;2023-03-05T14:11:19;5.03;;;0.73;;
43994;SDS011;51687;52.160;5.298;2023-03-05T14:13:46;2.13;;;0.68;;
43994;SDS011;51687;52.160;5.298;2023-03-05T14:16:22;2.88;;;0.90;;
43994;SDS011;51687;52.160;5.298;2023-03-05T14:18:55;2.92;;;0.80;;
43994;SDS011;51687;52.160;5.298;2023-03-05T14:21:23;4.60;;;1.20;;
43994;SDS011;51687;52.160;5.298;2023-03-05T14:23:51;2.03;;;0.93;;
43994;SDS011;51687;52.160;5.298;2023-03-05T14:26:25;2.45;;;1.00;;
43994;SDS011;51687;52.160;5.298;2023-03-05T14:31:44;2.95;;;1.60;;
43994;SDS011;51687;52.160;5.298;2023-03-05T14:34:47;2.75;;;1.75;;
43994;SDS011;51687;52.160;5.298;2023-03-05T14:37:17;2.63;;;1.20;;
43994;SDS011;51687;52.160;5.298;2023-03-05T14:42:24;1.73;;;0.95;;
43994;SDS011;51687;52.160;5.298;2023-03-05T14:44:52;1.42;;;0.75;;
43994;SDS011;51687;52.160;5.298;2023-03-05T14:49:51;1.52;;;0.80;;
43994;SDS011;51687;52.160;5.298;2023-03-05T14:52:18;1.98;;;0.98;;
43994;SDS011;51687;52.160;5.298;2023-03-05T14:54:47;3.10;;;1.15;;
43994;SDS011;51687;52.160;5.298;2023-03-05T14:57:21;3.00;;;1.10;;
43994;SDS011;51687;52.160;5.298;2023-03-05T14:59:53;2.08;;;1.05;;
43994;SDS011;51687;52.160;5.298;2023-03-05T15:02:21;3.38;;;1.10;;
43994;SDS011;51687;52.160;5.298;2023-03-05T15:04:50;1.48;;;1.10;;
43994;SDS011;51687;52.160;5.298;2023-03-05T15:07:19;5.60;;;1.20;;
43994;SDS011;51687;52.160;5.298;2023-03-05T15:09:57;2.67;;;1.00;;
43994;SDS011;51687;52.160;5.298;2023-03-05T15:12:25;2.20;;;1.00;;
43994;SDS011;51687;52.160;5.298;2023-03-05T15:14:52;2.78;;;1.30;;
43994;SDS011;51687;52.160;5.298;2023-03-05T15:17:22;2.88;;;1.00;;
43994;SDS011;51687;52.160;5.298;2023-03-05T15:19:50;3.22;;;1.13;;
43994;SDS011;51687;52.160;5.298;2023-03-05T15:22:18;2.15;;;0.80;;
43994;SDS011;51687;52.160;5.298;2023-03-05T15:24:46;2.40;;;0.55;;
43994;SDS011;51687;52.160;5.298;2023-03-05T15:27:13;3.53;;;0.70;;
43994;SDS011;51687;52.160;5.298;2023-03-05T15:29:40;2.25;;;0.70;;
43994;SDS011;51687;52.160;5.298;2023-03-05T15:32:07;4.63;;;0.80;;
43994;SDS011;51687;52.160;5.298;2023-03-05T15:34:34;3.40;;;0.80;;
43994;SDS011;51687;52.160;5.298;2023-03-05T15:37:02;3.28;;;0.80;;
43994;SDS011;51687;52.160;5.298;2023-03-05T15:39:29;3.47;;;1.08;;
43994;SDS011;51687;52.160;5.298;2023-03-05T15:41:56;2.33;;;0.90;;
43994;SDS011;51687;52.160;5.298;2023-03-05T15:44:23;2.70;;;0.75;;
43994;SDS011;51687;52.160;5.298;2023-03-05T15:46:51;3.40;;;0.70;;
43994;SDS011;51687;52.160;5.298;2023-03-05T15:49:18;1.85;;;0.70;;
43994;SDS011;51687;52.160;5.298;2023-03-05T15:51:47;2.00;;;0.68;;
43994;SDS011;51687;52.160;5.298;2023-03-05T15:54:14;3.35;;;0.75;;
43994;SDS011;51687;52.160;5.298;2023-03-05T15:56:42;2.10;;;0.70;;
43994;SDS011;51687;52.160;5.298;2023-03-05T15:59:09;1.88;;;0.68;;
43994;SDS011;51687;52.160;5.298;2023-03-05T16:01:36;2.88;;;0.88;;
43994;SDS011;51687;52.160;5.298;2023-03-05T16:04:03;3.22;;;0.68;;
43994;SDS011;51687;52.160;5.298;2023-03-05T16:06:31;2.50;;;0.80;;
43994;SDS011;51687;52.160;5.298;2023-03-05T16:09:00;2.42;;;0.50;;
43994;SDS011;51687;52.160;5.298;2023-03-05T16:11:29;1.08;;;0.65;;
43994;SDS011;51687;52.160;5.298;2023-03-05T16:13:57;2.20;;;0.52;;
43994;SDS011;51687;52.160;5.298;2023-03-05T16:16:26;1.73;;;0.70;;
43994;SDS011;51687;52.160;5.298;2023-03-05T16:18:54;2.65;;;0.90;;
43994;SDS011;51687;52.160;5.298;2023-03-05T16:21:22;2.15;;;0.77;;
43994;SDS011;51687;52.160;5.298;2023-03-05T16:23:50;2.47;;;1.13;;
43994;SDS011;51687;52.160;5.298;2023-03-05T16:26:17;2.30;;;0.93;;
43994;SDS011;51687;52.160;5.298;2023-03-05T16:28:44;3.55;;;0.80;;
43994;SDS011;51687;52.160;5.298;2023-03-05T16:31:11;3.03;;;0.73;;
43994;SDS011;51687;52.160;5.298;2023-03-05T16:33:38;5.95;;;1.08;;
43994;SDS011;51687;52.160;5.298;2023-03-05T16:38:38;3.60;;;0.90;;
43994;SDS011;51687;52.160;5.298;2023-03-05T16:41:07;2.25;;;0.90;;
43994;SDS011;51687;52.160;5.298;2023-03-05T16:43:34;3.10;;;1.10;;
43994;SDS011;51687;52.160;5.298;2023-03-05T16:46:02;3.08;;;1.00;;
43994;SDS011;51687;52.160;5.298;2023-03-05T16:48:29;2.25;;;0.98;;